createdAt,value
2022-09-30T00:03:11.358Z,100790.19
2022-09-30T00:08:34.526Z,100787.88
2022-09-30T00:13:59.646Z,100785.59
2022-09-30T00:19:22.767Z,100790.94
2022-09-30T00:24:46.533Z,100797.97
2022-09-30T00:30:11.959Z,100793.94
2022-09-30T00:35:35.097Z,100790.72
2022-09-30T00:40:59.648Z,100793.31
2022-09-30T00:46:29.727Z,100790.81
2022-09-30T00:51:56.371Z,100788.34
2022-09-30T00:57:19.552Z,100791.91
2022-09-30T01:02:44.000Z,100792.16
2022-09-30T01:08:10.566Z,100798.41
2022-09-30T01:13:35.566Z,100803.63
2022-09-30T01:19:17.605Z,100815.22
2022-09-30T01:25:25.286Z,100803.16
2022-09-30T01:31:04.434Z,100801.56
2022-09-30T01:36:39.619Z,100805.22
2022-09-30T01:42:10.053Z,100806.22
2022-09-30T01:47:38.258Z,100808.94
2022-09-30T01:53:07.412Z,100814.31
2022-09-30T01:58:37.359Z,100803.41
2022-09-30T02:04:06.293Z,100798.22
2022-09-30T02:09:31.555Z,100799.22
2022-09-30T02:15:00.390Z,100785.31
2022-09-30T02:20:27.491Z,100785.22
2022-09-30T02:25:57.154Z,100794.84
2022-09-30T02:31:24.000Z,100808.69
2022-09-30T02:36:52.847Z,100805.50
2022-09-30T02:42:20.446Z,100811.59
2022-09-30T02:47:53.216Z,100808.38
2022-09-30T02:53:23.175Z,100819.69
2022-09-30T02:58:47.092Z,100824.09
2022-09-30T03:04:12.280Z,100807.75
2022-09-30T03:09:37.190Z,100832.00
2022-09-30T03:15:24.056Z,100830.16
2022-09-30T03:20:53.761Z,100829.66
2022-09-30T03:26:27.410Z,100817.97
2022-09-30T03:31:58.954Z,100836.94
2022-09-30T03:37:28.197Z,100851.72
2022-09-30T03:42:56.780Z,100850.91
2022-09-30T03:48:21.977Z,100850.19
2022-09-30T03:53:46.594Z,100850.19
2022-09-30T03:59:13.446Z,100852.03
2022-09-30T04:04:36.594Z,100860.00
2022-09-30T04:09:59.665Z,100860.03
2022-09-30T04:15:24.131Z,100861.81
2022-09-30T04:20:47.169Z,100870.50
2022-09-30T04:26:13.227Z,100873.16
2022-09-30T04:31:37.765Z,100863.81
2022-09-30T04:37:00.815Z,100866.59
2022-09-30T04:42:24.349Z,100869.09
2022-09-30T04:47:49.008Z,100880.47
2022-09-30T04:53:14.629Z,100884.78
2022-09-30T04:58:37.780Z,100891.84
2022-09-30T05:04:02.640Z,100892.72
2022-09-30T05:09:25.890Z,100906.59
2022-09-30T05:14:49.146Z,100910.13
2022-09-30T05:20:16.592Z,100909.16
2022-09-30T05:25:41.985Z,100899.59
2022-09-30T05:31:06.265Z,100893.59
2022-09-30T05:36:30.833Z,100905.63
2022-09-30T05:41:53.886Z,100905.59
2022-09-30T05:47:17.293Z,100907.44
2022-09-30T05:52:41.775Z,100904.88
2022-09-30T05:58:04.891Z,100903.13
2022-09-30T06:03:27.980Z,100897.88
2022-09-30T06:08:52.808Z,100893.56
2022-09-30T06:14:18.784Z,100902.19
2022-09-30T06:19:41.838Z,100915.19
2022-09-30T06:25:07.490Z,100915.75
2022-09-30T06:30:34.881Z,100924.97
2022-09-30T06:35:58.359Z,100926.38
2022-09-30T06:41:27.523Z,100934.38
2022-09-30T06:46:53.836Z,100928.75
2022-09-30T06:52:17.207Z,100925.72
2022-09-30T06:57:43.656Z,100936.47
2022-09-30T07:03:09.947Z,100937.69
2022-09-30T07:08:35.091Z,100917.72
2022-09-30T07:13:59.491Z,100914.16
2022-09-30T07:19:22.946Z,100913.31
2022-09-30T07:24:46.243Z,100912.03
2022-09-30T07:30:19.261Z,100908.94
2022-09-30T07:35:54.791Z,100909.41
2022-09-30T07:41:19.595Z,100909.41
2022-09-30T07:46:45.242Z,100903.19
2022-09-30T07:52:09.065Z,100897.69
2022-09-30T07:57:32.076Z,100890.44
2022-09-30T08:02:58.027Z,100891.19
2022-09-30T08:08:21.088Z,100901.34
2022-09-30T08:13:44.180Z,100907.56
2022-09-30T08:19:08.631Z,100908.81
2022-09-30T08:24:31.841Z,100896.06
2022-09-30T08:29:57.326Z,100903.91
2022-09-30T08:35:22.769Z,100909.06
2022-09-30T08:40:56.382Z,100914.16
2022-09-30T08:46:27.816Z,100901.69
2022-09-30T08:51:53.197Z,100899.72
2022-09-30T08:57:16.222Z,100904.72
2022-09-30T09:02:45.795Z,100904.50
2022-09-30T09:08:17.273Z,100894.13
2022-09-30T09:13:47.876Z,100891.28
2022-09-30T09:19:12.672Z,100889.03
2022-09-30T09:24:39.223Z,100897.22
2022-09-30T09:30:07.532Z,100901.66
2022-09-30T09:35:37.687Z,100891.81
2022-09-30T09:41:11.025Z,100895.16
2022-09-30T09:46:38.925Z,100900.72
2022-09-30T09:52:16.896Z,100894.59
2022-09-30T09:57:41.661Z,100880.28
2022-09-30T10:03:06.454Z,100876.88
2022-09-30T10:08:31.270Z,100883.53
2022-09-30T10:13:57.836Z,100866.47
2022-09-30T10:19:23.041Z,100862.78
2022-09-30T10:24:46.111Z,100865.88
2022-09-30T10:30:11.057Z,100868.31
2022-09-30T10:35:34.158Z,100874.47
2022-09-30T10:40:57.790Z,100861.19
2022-09-30T10:46:27.749Z,100867.59
2022-09-30T10:51:51.269Z,100864.19
2022-09-30T10:57:16.963Z,100861.75
2022-09-30T11:02:48.248Z,100853.88
2022-09-30T11:08:16.456Z,100854.09
2022-09-30T11:13:44.055Z,100841.44
2022-09-30T11:19:11.798Z,100836.13
2022-09-30T11:24:38.416Z,100844.56
2022-09-30T11:30:05.217Z,100824.59
2022-09-30T11:35:42.978Z,100808.59
2022-09-30T11:41:09.917Z,100808.28
2022-09-30T11:46:45.400Z,100799.91
2022-09-30T11:52:17.080Z,100794.69
2022-09-30T11:57:46.634Z,100792.50
2022-09-30T12:03:14.428Z,100789.38
2022-09-30T12:08:42.162Z,100788.47
2022-09-30T12:14:07.447Z,100778.88
2022-09-30T12:19:33.771Z,100782.25
2022-09-30T12:24:58.192Z,100783.13
2022-09-30T12:30:23.947Z,100785.38
2022-09-30T12:36:09.112Z,100759.91
2022-09-30T12:41:42.711Z,100759.84
2022-09-30T12:47:15.747Z,100763.16
2022-09-30T12:52:39.356Z,100762.31
2022-09-30T12:58:05.117Z,100755.66
2022-09-30T13:03:28.208Z,100726.97
2022-09-30T13:09:19.153Z,100740.69
2022-09-30T13:14:44.253Z,100712.25
2022-09-30T13:20:40.583Z,100727.47
2022-09-30T13:26:04.116Z,100718.97
2022-09-30T13:31:32.237Z,100710.72
2022-09-30T13:36:59.779Z,100708.94
2022-09-30T13:42:29.907Z,100714.16
2022-09-30T13:48:03.106Z,100712.38
2022-09-30T13:53:35.596Z,100706.09
2022-09-30T13:59:18.931Z,100706.56
2022-09-30T14:05:00.638Z,100708.19
2022-09-30T14:10:35.956Z,100708.59
2022-09-30T14:16:20.350Z,100694.63
2022-09-30T14:21:46.253Z,100669.59
2022-09-30T14:27:26.144Z,100684.78
2022-09-30T14:32:50.433Z,100662.44
2022-09-30T14:38:19.034Z,100665.44
2022-09-30T14:43:43.831Z,100655.50
2022-09-30T14:49:09.529Z,100662.47
2022-09-30T14:54:36.432Z,100651.06
2022-09-30T15:00:23.756Z,100654.94
2022-09-30T15:05:48.444Z,100662.97
2022-09-30T15:11:21.300Z,100659.00
2022-09-30T15:16:48.560Z,100656.38
2022-09-30T15:22:16.485Z,100661.56
2022-09-30T15:27:51.018Z,100658.34
2022-09-30T15:33:29.221Z,100670.97
2022-09-30T15:39:01.628Z,100669.34
2022-09-30T15:44:41.933Z,100670.00
2022-09-30T15:50:24.051Z,100655.94
2022-09-30T15:56:10.671Z,100650.06
2022-09-30T16:01:39.012Z,100647.34
2022-09-30T16:07:09.428Z,100652.31
2022-09-30T16:12:36.014Z,100635.91
2022-09-30T16:18:06.485Z,100637.75
2022-09-30T16:23:32.834Z,100633.31
2022-09-30T16:28:56.002Z,100616.34
2022-09-30T16:34:23.817Z,100600.25
2022-09-30T16:39:47.486Z,100614.03
2022-09-30T16:45:12.998Z,100603.88
2022-09-30T16:50:40.326Z,100611.31
2022-09-30T16:56:03.397Z,100606.34
2022-09-30T17:01:26.953Z,100603.88
2022-09-30T17:06:51.437Z,100599.47
2022-09-30T17:12:14.654Z,100597.00
2022-09-30T17:17:37.707Z,100583.13
2022-09-30T17:23:07.327Z,100580.97
2022-09-30T17:28:34.302Z,100578.47
2022-09-30T17:33:57.629Z,100564.09
2022-09-30T17:39:22.100Z,100560.88
2022-09-30T17:44:45.187Z,100557.50
2022-09-30T17:50:10.054Z,100562.97
2022-09-30T17:55:34.728Z,100566.66
2022-09-30T18:00:59.400Z,100546.34
2022-09-30T18:06:22.557Z,100541.69
2022-09-30T18:11:47.107Z,100536.47
2022-09-30T18:17:10.394Z,100525.31
2022-09-30T18:22:33.404Z,100513.66
2022-09-30T18:28:00.278Z,100504.59
2022-09-30T18:33:23.427Z,100492.06
2022-09-30T18:38:46.549Z,100469.56
2022-09-30T18:44:11.140Z,100459.84
2022-09-30T18:49:34.156Z,100461.94
2022-09-30T18:54:57.254Z,100455.59
2022-09-30T19:00:23.726Z,100443.22
2022-09-30T19:05:46.718Z,100435.25
2022-09-30T19:11:13.900Z,100418.84
2022-09-30T19:16:39.032Z,100418.72
2022-09-30T19:22:02.964Z,100418.28
2022-09-30T19:27:27.006Z,100411.19
2022-09-30T19:32:59.151Z,100391.38
2022-09-30T19:38:33.934Z,100386.69
2022-09-30T19:44:01.992Z,100378.09
2022-09-30T19:49:26.470Z,100374.97
2022-09-30T19:54:50.758Z,100351.78
2022-09-30T20:00:14.299Z,100332.75
2022-09-30T20:05:39.013Z,100337.00
2022-09-30T20:11:03.207Z,100324.94
2022-09-30T20:16:26.417Z,100329.59
2022-09-30T20:21:51.050Z,100315.41
2022-09-30T20:27:14.044Z,100300.16
2022-09-30T20:32:39.470Z,100303.56
2022-09-30T20:38:03.866Z,100305.09
2022-09-30T20:43:29.961Z,100303.47
2022-09-30T20:48:54.811Z,100305.19
2022-09-30T20:54:22.496Z,100313.06
2022-09-30T20:59:46.557Z,100308.97
2022-09-30T21:05:10.277Z,100294.00
2022-09-30T21:10:35.896Z,100287.28
2022-09-30T21:16:01.627Z,100278.25
2022-09-30T21:21:26.746Z,100270.88
2022-09-30T21:26:51.059Z,100273.75
2022-09-30T21:32:15.328Z,100283.84
2022-09-30T21:37:38.380Z,100274.50
2022-09-30T21:43:02.776Z,100273.78
2022-09-30T21:48:25.813Z,100281.28
2022-09-30T21:53:49.874Z,100271.88
2022-09-30T21:59:14.349Z,100273.63
2022-09-30T22:04:38.902Z,100269.25
2022-09-30T22:10:02.032Z,100283.44
2022-09-30T22:15:26.543Z,100283.50
2022-09-30T22:20:49.566Z,100265.78
2022-09-30T22:26:14.581Z,100261.63
2022-09-30T22:31:39.725Z,100254.03
2022-09-30T22:37:20.264Z,100240.59
2022-09-30T22:42:43.241Z,100232.78
2022-09-30T22:48:07.675Z,100207.53
2022-09-30T22:53:30.662Z,100207.38
2022-09-30T22:58:53.816Z,100202.38
2022-09-30T23:04:18.887Z,100186.09
2022-09-30T23:09:42.044Z,100161.25
2022-09-30T23:15:07.378Z,100143.03
2022-09-30T23:20:31.701Z,100134.34
2022-09-30T23:26:01.834Z,100110.56
2022-09-30T23:31:25.089Z,100064.06
2022-09-30T23:36:49.593Z,100042.56
2022-09-30T23:42:12.573Z,100055.56
2022-09-30T23:47:35.549Z,100052.59
2022-09-30T23:53:00.091Z,100058.44
2022-09-30T23:58:23.273Z,100054.22
